Time;durP1;ratioP1;P1;durP2;ratioP2;P2;SDS_P1;SDS_P2;PMS_P1;PMS_P2;Temp;Humidity;BMP_temperature;BMP_pressure;BME280_temperature;BME280_humidity;BME280_pressure;Samples;Min_cycle;Max_cycle;Signal;HPM_P1;HPM_P2
2023/03/20 00:01:29;;;;;;;12.15;9.45;;;8.10;99.90;;;;;;4904648;29;20138;-67
2023/03/20 00:03:56;;;;;;;17.08;9.15;;;8.20;99.90;;;;;;4888593;29;20500;-67
2023/03/20 00:06:24;;;;;;;12.57;8.25;;;8.10;99.90;;;;;;4906508;29;20579;-67
2023/03/20 00:08:53;;;;;;;16.60;9.90;;;8.10;99.90;;;;;;4898690;29;20513;-68
2023/03/20 00:11:21;;;;;;;12.60;9.20;;;8.10;99.90;;;;;;4911025;29;20048;-67
2023/03/20 00:13:47;;;;;;;13.82;9.85;;;8.10;99.90;;;;;;4906837;29;20582;-67
2023/03/20 00:16:13;;;;;;;14.65;9.45;;;8.10;99.90;;;;;;4900220;29;20123;-67
2023/03/20 00:18:40;;;;;;;17.58;10.38;;;8.10;99.90;;;;;;4904884;29;20122;-67
2023/03/20 00:21:16;;;;;;;14.95;9.95;;;8.10;99.90;;;;;;4906653;29;20040;-67
2023/03/20 00:23:42;;;;;;;14.68;9.32;;;8.10;99.90;;;;;;4939114;29;20357;-67
2023/03/20 00:26:13;;;;;;;20.48;10.77;;;8.10;99.90;;;;;;4901300;29;20048;-67
2023/03/20 00:28:42;;;;;;;19.70;10.23;;;8.10;99.90;;;;;;4905116;29;20042;-66
2023/03/20 00:31:28;;;;;;;19.52;10.30;;;8.10;99.90;;;;;;4904072;29;20048;-67
2023/03/20 00:33:56;;;;;;;21.95;10.40;;;8.10;99.90;;;;;;4905680;29;20040;-67
2023/03/20 00:36:23;;;;;;;22.23;11.27;;;8.10;99.90;;;;;;4906562;29;20056;-67
2023/03/20 00:38:49;;;;;;;17.77;10.48;;;8.10;99.90;;;;;;4905775;29;20059;-67
2023/03/20 00:41:31;;;;;;;18.63;11.18;;;8.10;99.90;;;;;;4908510;29;20052;-67
2023/03/20 00:44:08;;;;;;;24.15;10.18;;;8.10;99.90;;;;;;4909219;29;20057;-68
2023/03/20 00:46:37;;;;;;;23.30;10.07;;;8.10;99.90;;;;;;4906507;29;20078;-67
2023/03/20 00:49:03;;;;;;;18.95;9.43;;;8.10;99.90;;;;;;4902068;29;20041;-68
2023/03/20 00:51:29;;;;;;;17.60;9.40;;;8.10;99.90;;;;;;4938052;29;20040;-67
2023/03/20 00:53:55;;;;;;;20.88;9.10;;;8.10;99.90;;;;;;4909245;29;20507;-66
2023/03/20 00:56:39;;;;;;;19.67;9.68;;;8.20;99.90;;;;;;4935992;28;20510;-66
2023/03/20 00:59:06;;;;;;;19.85;9.00;;;8.10;99.90;;;;;;4910368;29;20044;-66
2023/03/20 01:01:32;;;;;;;15.73;8.07;;;8.10;99.90;;;;;;4906586;29;20044;-67
2023/03/20 01:03:59;;;;;;;17.35;8.38;;;8.10;99.90;;;;;;4910386;29;20142;-67
2023/03/20 01:06:24;;;;;;;17.17;7.78;;;8.10;99.90;;;;;;4901755;29;20048;-66
2023/03/20 01:08:50;;;;;;;16.30;7.90;;;8.10;99.90;;;;;;4901986;29;20144;-66
2023/03/20 01:11:21;;;;;;;17.77;7.97;;;8.10;99.90;;;;;;4907603;29;20048;-66
2023/03/20 01:13:47;;;;;;;14.13;7.35;;;8.10;99.90;;;;;;4907950;29;20052;-67
2023/03/20 01:16:22;;;;;;;17.15;7.70;;;8.10;99.90;;;;;;4905016;29;20052;-67
2023/03/20 01:18:49;;;;;;;14.05;7.15;;;8.10;99.90;;;;;;4903200;29;20102;-67
2023/03/20 01:21:16;;;;;;;12.10;6.43;;;8.00;99.90;;;;;;4909743;29;20052;-66
2023/03/20 01:23:41;;;;;;;16.13;6.72;;;8.00;99.90;;;;;;4910455;29;20450;-66
2023/03/20 01:26:36;;;;;;;13.95;6.85;;;8.00;99.90;;;;;;4906337;29;20064;-67
2023/03/20 01:29:02;;;;;;;15.65;6.78;;;8.00;99.90;;;;;;4935925;29;20043;-66
2023/03/20 01:31:28;;;;;;;13.82;6.50;;;8.00;99.90;;;;;;4904981;29;20044;-67
2023/03/20 01:33:54;;;;;;;14.68;6.78;;;8.00;99.90;;;;;;4904781;29;20048;-66
2023/03/20 01:36:22;;;;;;;15.20;7.05;;;8.00;99.90;;;;;;4904671;29;20044;-67
2023/03/20 01:38:56;;;;;;;12.95;6.80;;;8.00;99.90;;;;;;4936380;29;20126;-66
2023/03/20 01:41:24;;;;;;;16.08;6.90;;;8.00;99.90;;;;;;4912829;29;20047;-66
2023/03/20 01:43:50;;;;;;;12.13;6.63;;;8.00;99.90;;;;;;4932700;29;20079;-66
2023/03/20 01:46:18;;;;;;;18.30;8.32;;;8.00;99.90;;;;;;4904445;29;20092;-67
2023/03/20 01:48:50;;;;;;;15.68;8.00;;;8.00;99.90;;;;;;4901368;29;20100;-67
2023/03/20 01:51:16;;;;;;;11.02;7.38;;;8.00;99.90;;;;;;4908379;29;20547;-67
2023/03/20 01:53:48;;;;;;;16.02;8.05;;;8.00;99.90;;;;;;4904346;29;20115;-67
2023/03/20 01:56:16;;;;;;;13.07;8.57;;;8.00;99.90;;;;;;4909577;29;20056;-67
2023/03/20 01:58:47;;;;;;;18.10;9.55;;;8.00;99.90;;;;;;4906952;29;20536;-67
2023/03/20 02:01:14;;;;;;;18.08;9.80;;;8.00;99.90;;;;;;4908651;29;20048;-66
2023/03/20 02:03:47;;;;;;;15.25;9.95;;;8.00;99.90;;;;;;4899418;29;20045;-67
2023/03/20 02:06:12;;;;;;;16.88;10.68;;;8.00;99.90;;;;;;4938124;28;20048;-66
2023/03/20 02:08:46;;;;;;;19.52;10.45;;;8.00;99.90;;;;;;4905986;29;20055;-67
2023/03/20 02:11:14;;;;;;;18.20;10.32;;;8.00;99.90;;;;;;4910343;29;20044;-67
2023/03/20 02:13:40;;;;;;;22.38;10.45;;;8.00;99.90;;;;;;4901850;29;20381;-66
2023/03/20 02:16:16;;;;;;;21.00;11.55;;;8.00;99.90;;;;;;4906099;29;20600;-66
2023/03/20 02:18:48;;;;;;;18.58;10.65;;;8.00;99.90;;;;;;4905323;29;20052;-66
2023/03/20 02:21:28;;;;;;;24.98;10.55;;;8.00;99.90;;;;;;4905348;29;20048;-66
2023/03/20 02:24:09;;;;;;;21.02;10.40;;;8.00;99.90;;;;;;4903573;29;20119;-67
2023/03/20 02:26:49;;;;;;;18.92;10.07;;;8.00;99.90;;;;;;4902656;29;20096;-66
2023/03/20 02:29:56;;;;;;;20.08;11.10;;;8.00;99.90;;;;;;4903947;29;20131;-67
2023/03/20 02:32:31;;;;;;;18.27;10.15;;;8.00;99.90;;;;;;4906640;29;20115;-67
2023/03/20 02:35:00;;;;;;;;;;;8.00;99.90;;;;;;4912721;29;20056;-67
2023/03/20 02:37:41;;;;;;;17.75;9.45;;;8.00;99.90;;;;;;4907433;29;19958;-67
2023/03/20 02:40:42;;;;;;;16.38;10.95;;;7.90;99.90;;;;;;4934868;28;20090;-66
2023/03/20 02:43:24;;;;;;;17.23;10.75;;;7.90;99.90;;;;;;4896421;29;20048;-66
2023/03/20 02:45:59;;;;;;;19.48;11.32;;;8.00;99.90;;;;;;4909120;29;20263;-67
2023/03/20 02:48:42;;;;;;;20.85;11.90;;;8.00;99.90;;;;;;4907040;29;20048;-67
2023/03/20 02:51:49;;;;;;;21.52;11.18;;;8.00;99.90;;;;;;4903648;29;20060;-66
2023/03/20 02:54:27;;;;;;;17.73;11.95;;;8.00;99.90;;;;;;4875529;29;20048;-67
2023/03/20 02:57:03;;;;;;;19.30;10.90;;;8.00;99.90;;;;;;4906479;29;20052;-67
2023/03/20 03:00:13;;;;;;;22.15;11.50;;;8.00;99.90;;;;;;4910180;29;20055;-67
2023/03/20 03:02:43;;;;;;;19.95;11.13;;;8.00;99.90;;;;;;4888857;29;20050;-66
2023/03/20 03:05:20;;;;;;;20.08;12.00;;;8.00;99.90;;;;;;4905407;29;20059;-66
2023/03/20 03:07:49;;;;;;;21.17;11.95;;;8.00;99.90;;;;;;4906866;29;20519;-66
2023/03/20 03:10:22;;;;;;;19.45;11.65;;;8.00;99.90;;;;;;4900821;29;20395;-66
2023/03/20 03:12:50;;;;;;;16.17;11.25;;;8.00;99.90;;;;;;4901362;29;20644;-66
2023/03/20 03:15:26;;;;;;;16.40;11.55;;;8.00;99.90;;;;;;4904389;29;20177;-65
2023/03/20 03:17:53;;;;;;;16.33;11.80;;;8.00;99.90;;;;;;4906229;29;20098;-66
2023/03/20 03:20:23;;;;;;;19.30;12.15;;;8.00;99.90;;;;;;4901442;29;20044;-66
2023/03/20 03:22:50;;;;;;;21.98;12.77;;;8.00;99.90;;;;;;4904210;29;20400;-66
2023/03/20 03:25:15;;;;;;;20.17;12.40;;;8.00;99.90;;;;;;4906507;29;20041;-66
2023/03/20 03:27:47;;;;;;;22.27;12.77;;;8.00;99.90;;;;;;4902083;29;20048;-66
2023/03/20 03:30:36;;;;;;;17.65;11.68;;;8.00;99.90;;;;;;4903458;29;20502;-66
2023/03/20 03:33:12;;;;;;;20.63;11.90;;;8.00;99.90;;;;;;4905568;29;20044;-66
2023/03/20 03:35:39;;;;;;;17.63;11.95;;;8.00;99.90;;;;;;4906208;29;20108;-66
2023/03/20 03:38:25;;;;;;;18.75;12.77;;;8.00;99.90;;;;;;4903364;29;20114;-67
2023/03/20 03:40:51;;;;;;;17.85;11.55;;;8.00;99.90;;;;;;4909469;29;20040;-66
2023/03/20 03:43:31;;;;;;;19.92;11.35;;;8.00;99.90;;;;;;4904380;29;20058;-66
2023/03/20 03:46:03;;;;;;;16.30;10.77;;;8.00;99.90;;;;;;4910171;29;20095;-66
2023/03/20 03:48:39;;;;;;;18.17;10.88;;;8.00;99.90;;;;;;4903487;29;20127;-66
2023/03/20 03:51:12;;;;;;;17.90;10.20;;;8.00;99.90;;;;;;4908719;29;20279;-67
2023/03/20 03:53:47;;;;;;;16.08;10.23;;;8.00;99.90;;;;;;4905976;29;20055;-68
2023/03/20 03:56:15;;;;;;;15.90;9.07;;;8.00;99.90;;;;;;4908968;29;20047;-67
2023/03/20 03:58:46;;;;;;;16.42;9.43;;;8.00;99.90;;;;;;4902865;29;20059;-67
2023/03/20 04:01:15;;;;;;;14.25;8.77;;;8.00;99.90;;;;;;4906368;29;20044;-66
2023/03/20 04:03:47;;;;;;;13.88;8.70;;;8.00;99.90;;;;;;4902847;29;20052;-68
2023/03/20 04:06:15;;;;;;;13.68;8.75;;;8.00;99.90;;;;;;4905427;29;20051;-67
2023/03/20 04:08:41;;;;;;;15.63;7.78;;;8.00;99.90;;;;;;4897401;29;20044;-67
2023/03/20 04:11:16;;;;;;;13.05;8.25;;;7.90;99.90;;;;;;4910947;29;20043;-66
2023/03/20 04:13:41;;;;;;;13.23;7.20;;;8.00;99.90;;;;;;4906489;29;20451;-67
2023/03/20 04:16:12;;;;;;;11.48;7.00;;;7.90;99.90;;;;;;4943090;28;20048;-66
2023/03/20 04:18:38;;;;;;;11.35;6.65;;;7.90;99.90;;;;;;4908309;29;20504;-66
2023/03/20 04:21:04;;;;;;;12.30;7.15;;;7.90;99.90;;;;;;4913171;29;20079;-67
2023/03/20 04:23:30;;;;;;;13.10;7.10;;;7.90;99.90;;;;;;4908726;29;20056;-67
2023/03/20 04:25:56;;;;;;;13.40;6.57;;;7.90;99.90;;;;;;4907894;29;20091;-66
2023/03/20 04:28:22;;;;;;;9.70;5.80;;;7.90;99.90;;;;;;4904135;29;20560;-67
2023/03/20 04:30:55;;;;;;;13.52;7.10;;;7.80;99.90;;;;;;4909488;29;20032;-66
2023/03/20 04:33:22;;;;;;;13.10;5.53;;;7.80;99.90;;;;;;4905540;29;20788;-67
2023/03/20 04:35:47;;;;;;;10.18;6.20;;;7.80;99.90;;;;;;4909939;29;20036;-66
2023/03/20 04:38:14;;;;;;;12.30;6.38;;;7.80;99.90;;;;;;4909596;29;20070;-67
2023/03/20 04:40:40;;;;;;;12.27;6.22;;;7.80;99.90;;;;;;4941771;29;20539;-66
2023/03/20 04:43:06;;;;;;;10.02;5.93;;;7.80;99.90;;;;;;4937370;29;20048;-67
2023/03/20 04:45:31;;;;;;;11.63;6.45;;;7.80;99.90;;;;;;4937278;29;20526;-67
2023/03/20 04:47:57;;;;;;;12.07;6.80;;;7.80;99.90;;;;;;4907622;29;20143;-66
2023/03/20 04:50:23;;;;;;;10.63;6.20;;;7.80;99.90;;;;;;4906176;29;20045;-67
2023/03/20 04:52:49;;;;;;;9.77;6.82;;;7.80;99.90;;;;;;4907019;29;20049;-67
2023/03/20 04:55:15;;;;;;;12.60;6.60;;;7.80;99.90;;;;;;4932221;29;20511;-67
2023/03/20 04:57:40;;;;;;;12.43;7.60;;;7.80;99.90;;;;;;4910765;29;20053;-67
2023/03/20 05:00:07;;;;;;;12.63;7.65;;;7.80;99.90;;;;;;4903583;29;20468;-67
2023/03/20 05:02:33;;;;;;;14.95;8.18;;;7.80;99.90;;;;;;4907155;29;20044;-67
2023/03/20 05:04:58;;;;;;;11.55;7.28;;;7.80;99.90;;;;;;4906258;29;20077;-66
2023/03/20 05:07:24;;;;;;;13.98;7.45;;;7.80;99.90;;;;;;4909403;29;20040;-67
2023/03/20 05:09:50;;;;;;;12.98;8.15;;;7.70;99.90;;;;;;4904945;29;20100;-66
2023/03/20 05:12:16;;;;;;;14.63;9.00;;;7.70;99.90;;;;;;4908631;29;20052;-67
2023/03/20 05:14:42;;;;;;;14.90;8.57;;;7.70;99.90;;;;;;4903999;29;20040;-67
2023/03/20 05:17:07;;;;;;;14.60;9.00;;;7.70;99.90;;;;;;4905993;29;20060;-67
2023/03/20 05:19:33;;;;;;;17.05;9.48;;;7.70;99.90;;;;;;4906948;29;20040;-66
2023/03/20 05:22:00;;;;;;;14.77;9.27;;;7.70;99.90;;;;;;4919789;29;20102;-67
2023/03/20 05:24:27;;;;;;;18.90;10.40;;;7.60;99.90;;;;;;4906108;29;20119;-66
2023/03/20 05:26:53;;;;;;;15.27;8.90;;;7.70;99.90;;;;;;4907580;29;20175;-67
2023/03/20 05:29:19;;;;;;;11.50;8.52;;;7.70;99.90;;;;;;4906213;29;20048;-67
2023/03/20 05:31:45;;;;;;;16.23;9.35;;;7.70;99.90;;;;;;4908328;29;20048;-67
2023/03/20 05:34:11;;;;;;;14.57;10.07;;;7.70;99.90;;;;;;4902602;29;20469;-68
2023/03/20 05:36:37;;;;;;;10.95;8.82;;;7.70;99.90;;;;;;4907507;29;20036;-67
2023/03/20 05:39:03;;;;;;;13.30;9.38;;;7.70;99.90;;;;;;4907376;29;20047;-67
2023/03/20 05:41:29;;;;;;;15.82;9.73;;;7.70;99.90;;;;;;4902849;29;20051;-67
2023/03/20 05:43:54;;;;;;;15.35;9.98;;;7.70;99.90;;;;;;4909572;29;20044;-67
2023/03/20 05:46:21;;;;;;;17.50;10.25;;;7.60;99.90;;;;;;4897813;29;20048;-67
2023/03/20 05:48:47;;;;;;;14.75;10.40;;;7.70;99.90;;;;;;4905294;29;20043;-66
2023/03/20 05:51:13;;;;;;;16.25;9.88;;;7.70;99.90;;;;;;4901587;29;20570;-66
2023/03/20 05:53:39;;;;;;;14.10;9.95;;;7.70;99.90;;;;;;4919908;29;20444;-66
2023/03/20 05:56:05;;;;;;;16.88;11.25;;;7.70;99.90;;;;;;4907513;29;20044;-67
2023/03/20 05:58:31;;;;;;;15.05;9.52;;;7.70;99.90;;;;;;4907281;29;20095;-67
2023/03/20 06:00:57;;;;;;;14.40;9.52;;;7.70;99.90;;;;;;4906565;29;20100;-67
2023/03/20 06:03:23;;;;;;;13.07;9.93;;;7.70;99.90;;;;;;4910296;29;20131;-67
2023/03/20 06:05:48;;;;;;;12.88;10.27;;;7.70;99.90;;;;;;4937006;29;20484;-67
2023/03/20 06:08:14;;;;;;;16.58;10.50;;;7.70;99.90;;;;;;4906449;29;20036;-67
2023/03/20 06:10:40;;;;;;;15.68;10.65;;;7.70;99.90;;;;;;4905349;29;20056;-67
2023/03/20 06:13:06;;;;;;;13.90;10.18;;;7.70;99.90;;;;;;4905483;29;20496;-66
2023/03/20 06:15:32;;;;;;;15.43;9.93;;;7.70;99.90;;;;;;4909061;29;20052;-66
2023/03/20 06:17:58;;;;;;;15.38;10.40;;;7.70;99.90;;;;;;4905632;29;20289;-66
2023/03/20 06:20:25;;;;;;;18.33;9.82;;;7.70;99.90;;;;;;4907797;29;20039;-66
2023/03/20 06:22:51;;;;;;;15.02;10.73;;;7.70;99.90;;;;;;4934880;28;20146;-66
2023/03/20 06:25:17;;;;;;;15.18;10.93;;;7.80;99.90;;;;;;4924267;29;20068;-66
2023/03/20 06:27:46;;;;;;;16.45;10.45;;;7.80;99.90;;;;;;4936643;28;20048;-66
2023/03/20 06:30:13;;;;;;;20.60;11.45;;;7.80;99.90;;;;;;4904691;29;20079;-66
2023/03/20 06:32:39;;;;;;;14.82;10.93;;;7.80;99.90;;;;;;4901785;29;20080;-67
2023/03/20 06:35:06;;;;;;;16.23;11.00;;;7.90;99.90;;;;;;4909952;29;20044;-67
2023/03/20 06:37:32;;;;;;;21.40;11.48;;;7.90;99.90;;;;;;4892288;29;20048;-67
2023/03/20 06:39:58;;;;;;;16.33;10.10;;;7.90;99.90;;;;;;4908222;29;20053;-67
2023/03/20 06:42:24;;;;;;;16.00;10.82;;;7.90;99.90;;;;;;4906318;29;20064;-67
2023/03/20 06:44:50;;;;;;;16.50;10.05;;;8.00;99.90;;;;;;4905880;29;20432;-67
2023/03/20 06:47:15;;;;;;;18.10;10.45;;;8.00;99.90;;;;;;4911550;29;20043;-67
2023/03/20 06:49:42;;;;;;;12.55;9.70;;;8.00;99.90;;;;;;4904112;29;20491;-67
2023/03/20 06:52:17;;;;;;;18.17;10.90;;;8.00;99.90;;;;;;4908322;29;20044;-66
2023/03/20 06:54:43;;;;;;;12.55;9.27;;;8.10;99.90;;;;;;4903742;29;20070;-66
2023/03/20 06:57:09;;;;;;;12.98;8.85;;;8.10;99.90;;;;;;4939653;28;20202;-66
2023/03/20 06:59:35;;;;;;;16.92;9.82;;;8.10;99.90;;;;;;4906540;29;20055;-66
2023/03/20 07:02:01;;;;;;;12.10;8.95;;;8.10;99.90;;;;;;4900598;29;20083;-67
2023/03/20 07:04:27;;;;;;;14.68;9.23;;;8.20;99.90;;;;;;4931000;29;20045;-67
2023/03/20 07:06:54;;;;;;;15.45;9.55;;;8.20;99.90;;;;;;4901972;29;20044;-67
2023/03/20 07:09:21;;;;;;;15.40;9.02;;;8.20;99.90;;;;;;4899573;29;20082;-67
2023/03/20 07:11:47;;;;;;;14.52;9.23;;;8.20;99.90;;;;;;4898876;29;20047;-67
2023/03/20 07:14:13;;;;;;;14.20;10.15;;;8.30;99.90;;;;;;4902510;29;20052;-68
2023/03/20 07:16:40;;;;;;;14.95;9.93;;;8.30;99.90;;;;;;4909475;29;20046;-68
2023/03/20 07:19:06;;;;;;;14.65;9.82;;;8.30;99.90;;;;;;4899771;29;20068;-68
2023/03/20 07:21:32;;;;;;;15.25;10.02;;;8.30;99.90;;;;;;4888861;29;20071;-68
2023/03/20 07:23:58;;;;;;;15.25;9.75;;;8.30;99.90;;;;;;4904516;29;20048;-68
2023/03/20 07:26:24;;;;;;;17.60;9.70;;;8.30;99.90;;;;;;4906934;29;20032;-68
2023/03/20 07:28:50;;;;;;;23.42;10.65;;;8.30;99.90;;;;;;4904987;29;20501;-68
2023/03/20 07:31:22;;;;;;;16.55;10.45;;;8.30;99.90;;;;;;4906886;29;20059;-68
2023/03/20 07:33:47;;;;;;;15.75;10.95;;;8.40;99.90;;;;;;4902701;29;20040;-68
2023/03/20 07:36:13;;;;;;;15.45;10.32;;;8.40;99.90;;;;;;4908520;29;20051;-68
2023/03/20 07:38:39;;;;;;;17.65;10.05;;;8.50;99.90;;;;;;4902480;29;20074;-67
2023/03/20 07:41:05;;;;;;;15.60;10.57;;;8.50;99.90;;;;;;4909534;29;20107;-66
2023/03/20 07:43:31;;;;;;;15.77;10.18;;;8.60;99.90;;;;;;4911306;29;20057;-67
2023/03/20 07:45:57;;;;;;;17.90;9.82;;;8.60;99.90;;;;;;4901091;29;20067;-66
2023/03/20 07:48:22;;;;;;;16.42;10.52;;;8.70;99.90;;;;;;4901900;29;20198;-67
2023/03/20 07:50:48;;;;;;;15.68;9.52;;;8.70;99.90;;;;;;4902380;29;20563;-67
2023/03/20 07:53:14;;;;;;;14.55;8.35;;;8.60;99.90;;;;;;4907004;29;20029;-66
2023/03/20 07:55:39;;;;;;;13.65;9.18;;;8.70;99.90;;;;;;4900021;29;20181;-66
2023/03/20 07:58:07;;;;;;;14.75;9.43;;;8.80;99.90;;;;;;4933915;28;20429;-67
2023/03/20 08:00:33;;;;;;;17.38;10.45;;;8.80;99.90;;;;;;4933751;29;20123;-67
2023/03/20 08:02:58;;;;;;;16.17;9.63;;;8.80;99.90;;;;;;4905337;29;20127;-67
2023/03/20 08:05:24;;;;;;;17.05;10.30;;;8.90;99.90;;;;;;4903851;29;20127;-67
2023/03/20 08:07:50;;;;;;;15.85;9.57;;;9.00;99.90;;;;;;4905743;29;20040;-67
2023/03/20 08:10:16;;;;;;;19.88;10.50;;;9.00;99.90;;;;;;4907687;29;20480;-67
2023/03/20 08:12:42;;;;;;;15.75;10.20;;;9.10;99.90;;;;;;4907447;29;20067;-67
2023/03/20 08:15:08;;;;;;;15.32;9.93;;;9.10;99.90;;;;;;4904434;29;20142;-67
2023/03/20 08:17:34;;;;;;;16.40;10.55;;;9.20;99.90;;;;;;4902302;29;20052;-67
2023/03/20 08:19:59;;;;;;;16.20;10.18;;;9.20;99.90;;;;;;4904013;29;20049;-67
2023/03/20 08:22:25;;;;;;;16.63;10.18;;;9.20;99.90;;;;;;4906907;29;20096;-67
2023/03/20 08:24:51;;;;;;;14.50;9.13;;;9.30;99.90;;;;;;4900935;29;20049;-67
2023/03/20 08:27:16;;;;;;;15.07;9.32;;;9.30;99.90;;;;;;4918031;29;20043;-67
2023/03/20 08:29:42;;;;;;;17.85;9.15;;;9.40;99.90;;;;;;4903915;29;20496;-67
2023/03/20 08:32:08;;;;;;;13.70;8.80;;;9.50;99.90;;;;;;4935026;29;20047;-67
2023/03/20 08:34:33;;;;;;;15.88;9.55;;;9.60;99.90;;;;;;4907525;29;20572;-66
2023/03/20 08:37:02;;;;;;;16.05;9.80;;;9.70;99.90;;;;;;4903756;29;20054;-67
2023/03/20 08:39:28;;;;;;;15.85;9.82;;;9.90;99.90;;;;;;4907448;29;20472;-67
2023/03/20 08:41:54;;;;;;;15.55;9.48;;;10.10;99.90;;;;;;4935584;29;20040;-67
2023/03/20 08:44:20;;;;;;;15.60;8.93;;;10.30;99.90;;;;;;4906549;29;20135;-66
2023/03/20 08:46:46;;;;;;;15.85;9.88;;;10.60;99.90;;;;;;4905737;29;20032;-67
2023/03/20 08:49:11;;;;;;;14.48;8.52;;;10.70;99.90;;;;;;4904051;29;20469;-67
2023/03/20 08:51:37;;;;;;;15.05;10.13;;;10.90;99.90;;;;;;4904996;29;20132;-67
2023/03/20 08:54:03;;;;;;;13.98;9.05;;;11.20;99.90;;;;;;4890726;29;20062;-68
2023/03/20 08:56:29;;;;;;;15.05;8.65;;;11.50;99.90;;;;;;4905107;29;20109;-67
2023/03/20 08:58:55;;;;;;;16.08;9.13;;;11.70;99.90;;;;;;4907415;29;20138;-68
2023/03/20 09:01:21;;;;;;;15.57;9.63;;;11.80;99.90;;;;;;4907197;29;20455;-68
2023/03/20 09:03:46;;;;;;;12.70;8.52;;;11.80;99.90;;;;;;4903600;29;20044;-67
2023/03/20 09:06:12;;;;;;;16.17;8.95;;;11.90;99.90;;;;;;4906143;29;20499;-68
2023/03/20 09:08:38;;;;;;;14.35;9.05;;;11.90;99.90;;;;;;4910087;29;20124;-67
2023/03/20 09:11:05;;;;;;;12.57;9.40;;;11.90;99.90;;;;;;4910159;29;20040;-68
2023/03/20 09:13:30;;;;;;;13.88;9.27;;;11.90;99.90;;;;;;4904015;29;20503;-68
2023/03/20 09:15:57;;;;;;;12.88;9.45;;;12.00;99.90;;;;;;4910467;29;20032;-67
2023/03/20 09:18:23;;;;;;;14.63;9.35;;;12.30;99.90;;;;;;4907919;29;20429;-67
2023/03/20 09:20:49;;;;;;;14.05;8.93;;;12.30;99.90;;;;;;4907645;29;20477;-68
2023/03/20 09:23:15;;;;;;;13.05;8.45;;;12.40;99.90;;;;;;4901467;29;20052;-68
2023/03/20 09:25:41;;;;;;;13.88;8.68;;;12.70;99.90;;;;;;4906353;29;20389;-68
2023/03/20 09:28:07;;;;;;;13.15;8.90;;;13.00;99.90;;;;;;4910090;29;20084;-68
2023/03/20 09:30:32;;;;;;;13.52;8.63;;;13.50;99.90;;;;;;4909709;29;20032;-67
2023/03/20 09:32:58;;;;;;;12.23;8.23;;;13.70;99.90;;;;;;4903303;29;20043;-67
2023/03/20 09:35:24;;;;;;;11.38;8.43;;;13.90;99.90;;;;;;4908907;29;20032;-67
2023/03/20 09:37:50;;;;;;;11.68;7.80;;;14.10;99.90;;;;;;4909786;29;20080;-67
2023/03/20 09:40:30;;;;;;;12.20;8.75;;;14.00;99.90;;;;;;4906492;29;20047;-67
2023/03/20 09:43:16;;;;;;;10.40;7.35;;;13.90;99.90;;;;;;4907710;29;20059;-67
2023/03/20 09:46:00;;;;;;;11.25;7.40;;;13.70;99.90;;;;;;4907156;29;20067;-67
2023/03/20 09:48:42;;;;;;;10.70;7.43;;;13.50;99.90;;;;;;4896341;29;20040;-67
2023/03/20 09:51:17;;;;;;;12.80;6.72;;;13.50;99.90;;;;;;4917540;29;20100;-68
2023/03/20 09:53:56;;;;;;;12.00;7.57;;;13.50;99.90;;;;;;4919591;29;20040;-67
2023/03/20 09:56:26;;;;;;;11.25;7.53;;;13.60;99.90;;;;;;4909151;29;20052;-67
2023/03/20 09:58:59;;;;;;;11.55;7.90;;;13.50;99.90;;;;;;4937682;28;20044;-67
2023/03/20 10:01:47;;;;;;;12.48;7.93;;;13.30;99.90;;;;;;4911341;29;20512;-67
2023/03/20 10:04:13;;;;;;;13.68;7.65;;;13.20;99.90;;;;;;4906226;29;20041;-67
2023/03/20 10:06:39;;;;;;;13.07;7.70;;;13.10;99.90;;;;;;4908060;29;20036;-66
2023/03/20 10:09:21;;;;;;;13.82;8.82;;;13.10;99.90;;;;;;4910148;29;21475;-67
2023/03/20 10:12:12;;;;;;;14.52;7.28;;;12.90;99.90;;;;;;4906524;29;20373;-67
2023/03/20 10:14:41;;;;;;;12.57;8.02;;;12.80;99.90;;;;;;4905479;29;20052;-67
2023/03/20 10:17:31;;;;;;;14.00;7.80;;;12.80;99.90;;;;;;4907396;29;20100;-67
2023/03/20 10:20:01;;;;;;;11.73;7.78;;;12.60;99.90;;;;;;4904081;29;20044;-68
2023/03/20 10:22:35;;;;;;;13.73;7.95;;;12.50;99.90;;;;;;4906236;29;20048;-67
2023/03/20 10:25:18;;;;;;;11.82;8.20;;;12.40;99.90;;;;;;4901459;29;20049;-68
2023/03/20 10:27:58;;;;;;;14.70;7.93;;;12.20;99.90;;;;;;4906591;29;20036;-67
2023/03/20 10:31:01;;;;;;;14.88;7.35;;;12.00;99.90;;;;;;4903831;29;20056;-67
2023/03/20 10:33:35;;;;;;;16.38;7.95;;;11.90;99.90;;;;;;4892059;29;20511;-66
2023/03/20 10:36:29;;;;;;;17.17;7.75;;;11.60;99.90;;;;;;4924340;29;20046;-66
2023/03/20 10:39:19;;;;;;;12.48;7.82;;;11.50;99.90;;;;;;4938578;28;20047;-67
2023/03/20 10:41:57;;;;;;;12.75;6.97;;;11.40;99.90;;;;;;4904989;29;20108;-66
2023/03/20 10:44:36;;;;;;;14.35;8.00;;;11.30;99.90;;;;;;4907186;29;20131;-67
2023/03/20 10:47:07;;;;;;;16.35;8.20;;;11.30;99.90;;;;;;4920279;29;20063;-67
2023/03/20 10:49:45;;;;;;;14.23;7.72;;;11.30;99.90;;;;;;4906744;29;20242;-67
2023/03/20 10:52:26;;;;;;;11.25;7.03;;;11.30;99.90;;;;;;4905517;29;20434;-67
2023/03/20 10:55:17;;;;;;;13.93;6.65;;;11.30;99.90;;;;;;4935454;28;20431;-67
2023/03/20 10:57:51;;;;;;;12.38;6.63;;;11.30;99.90;;;;;;4904315;29;20052;-67
2023/03/20 11:00:23;;;;;;;14.40;6.30;;;11.30;99.90;;;;;;4903372;29;20323;-67
2023/03/20 11:02:49;;;;;;;9.95;6.25;;;11.30;99.90;;;;;;4907608;29;20573;-67
2023/03/20 11:05:18;;;;;;;13.63;6.40;;;11.30;99.90;;;;;;4903056;29;20045;-67
2023/03/20 11:07:45;;;;;;;11.23;5.95;;;11.30;99.90;;;;;;4905026;29;20044;-67
2023/03/20 11:10:15;;;;;;;13.35;6.53;;;11.40;99.90;;;;;;4905709;29;20489;-67
2023/03/20 11:12:47;;;;;;;10.70;6.15;;;11.40;99.90;;;;;;4908547;29;20071;-67
2023/03/20 11:15:21;;;;;;;10.13;5.63;;;11.30;99.90;;;;;;4938724;28;20465;-67
2023/03/20 11:17:56;;;;;;;10.25;5.28;;;11.20;99.90;;;;;;4904531;29;20526;-67
2023/03/20 11:20:23;;;;;;;10.30;5.93;;;11.10;99.90;;;;;;4905794;29;20463;-67
2023/03/20 11:22:51;;;;;;;10.80;5.55;;;11.10;99.90;;;;;;4934490;29;20107;-68
2023/03/20 11:25:28;;;;;;;9.15;5.05;;;11.00;99.90;;;;;;4910870;29;20044;-68
2023/03/20 11:27:55;;;;;;;10.55;5.28;;;11.10;99.90;;;;;;4900703;29;20041;-67
2023/03/20 11:30:21;;;;;;;11.60;5.97;;;11.00;99.90;;;;;;4910147;29;20044;-68
2023/03/20 11:32:50;;;;;;;11.57;5.10;;;11.00;99.90;;;;;;4903244;29;20040;-67
2023/03/20 11:35:27;;;;;;;10.60;5.15;;;11.00;99.90;;;;;;4911810;29;20059;-68
2023/03/20 11:38:05;;;;;;;14.40;6.10;;;11.00;99.90;;;;;;4905640;29;20052;-67
2023/03/20 11:40:32;;;;;;;10.15;5.47;;;11.00;99.90;;;;;;4936265;28;20580;-67
2023/03/20 11:43:03;;;;;;;9.25;5.60;;;11.00;99.90;;;;;;4907742;29;20127;-67
2023/03/20 11:45:35;;;;;;;11.07;5.88;;;11.00;99.90;;;;;;4938139;28;20444;-68
2023/03/20 11:48:03;;;;;;;10.02;5.25;;;11.10;99.90;;;;;;4908212;29;20048;-68
2023/03/20 11:50:42;;;;;;;11.18;5.78;;;11.00;99.90;;;;;;4905905;29;20128;-68
2023/03/20 11:53:28;;;;;;;11.80;5.72;;;11.00;99.90;;;;;;4940007;28;20123;-68
2023/03/20 11:56:02;;;;;;;10.50;4.72;;;10.90;99.90;;;;;;4901202;29;20055;-68
2023/03/20 11:58:28;;;;;;;8.60;4.55;;;10.80;99.90;;;;;;4911447;29;20481;-68
2023/03/20 12:00:56;;;;;;;8.82;3.72;;;10.80;99.90;;;;;;4907895;29;20424;-68
2023/03/20 12:03:41;;;;;;;8.63;3.25;;;10.70;99.90;;;;;;4899224;29;20048;-68
2023/03/20 12:06:13;;;;;;;8.75;3.42;;;10.80;99.90;;;;;;4905072;29;20047;-68
2023/03/20 12:08:41;;;;;;;7.97;3.38;;;10.70;99.90;;;;;;4905266;29;20040;-68
2023/03/20 12:11:34;;;;;;;9.57;3.60;;;10.70;99.90;;;;;;4908351;29;20424;-68
2023/03/20 12:14:05;;;;;;;13.30;3.88;;;10.70;99.90;;;;;;4896156;29;20040;-68
2023/03/20 12:16:34;;;;;;;10.30;2.92;;;10.70;99.90;;;;;;4935108;28;20127;-68
2023/03/20 12:19:05;;;;;;;8.77;3.50;;;10.50;99.90;;;;;;4908410;29;20164;-67
2023/03/20 12:22:03;;;;;;;10.63;3.88;;;10.50;99.90;;;;;;4905277;29;20059;-67
2023/03/20 12:24:44;;;;;;;8.27;3.65;;;10.40;99.90;;;;;;4898749;29;20127;-68
2023/03/20 12:27:13;;;;;;;12.45;3.88;;;10.50;99.90;;;;;;4891009;29;20128;-68
2023/03/20 12:29:46;;;;;;;10.98;3.80;;;10.50;99.90;;;;;;4904561;29;20057;-67
2023/03/20 12:32:37;;;;;;;8.27;3.38;;;10.60;99.90;;;;;;4906319;29;20048;-67
2023/03/20 12:35:32;;;;;;;7.25;3.45;;;10.70;99.90;;;;;;4928313;29;20095;-67
2023/03/20 12:37:59;;;;;;;7.00;3.08;;;10.80;99.90;;;;;;4906422;29;20488;-67
2023/03/20 12:40:38;;;;;;;9.57;4.13;;;10.70;99.90;;;;;;4906829;29;20139;-67
2023/03/20 12:43:14;;;;;;;7.95;2.90;;;10.70;99.90;;;;;;4904729;29;20060;-68
2023/03/20 12:46:08;;;;;;;7.97;3.20;;;10.60;99.90;;;;;;4909421;29;20044;-68
2023/03/20 12:48:49;;;;;;;9.15;3.10;;;10.50;99.90;;;;;;4938641;29;20046;-67
2023/03/20 12:51:27;;;;;;;6.63;3.22;;;10.50;99.90;;;;;;4906036;29;20484;-67
2023/03/20 12:54:20;;;;;;;6.85;3.33;;;10.60;99.90;;;;;;4906409;29;20044;-67
2023/03/20 12:56:58;;;;;;;7.18;3.72;;;10.60;99.90;;;;;;4906371;29;20044;-67
2023/03/20 12:59:44;;;;;;;7.45;3.60;;;10.60;99.90;;;;;;4905299;29;20463;-67